Time;durP1;ratioP1;P1;durP2;ratioP2;P2;SDS_P1;SDS_P2;PMS_P1;PMS_P2;Temp;Humidity;BMP_temperature;BMP_pressure;BME280_temperature;BME280_humidity;BME280_pressure;Samples;Min_cycle;Max_cycle;Signal;HPM_P1;HPM_P2
2020/12/30 00:00:07;;;;;;;56.95;30.42;;;6.40;81.60;;;;;;5094419;28;20440;-40
2020/12/30 00:02:33;;;;;;;52.13;29.38;;;6.40;81.50;;;;;;5094091;28;20066;-40
2020/12/30 00:05:00;;;;;;;51.67;28.33;;;6.40;81.30;;;;;;5094469;28;20024;-40
2020/12/30 00:07:26;;;;;;;64.10;36.45;;;6.40;81.10;;;;;;5093143;28;20040;-40
2020/12/30 00:09:52;;;;;;;61.30;32.88;;;6.40;81.10;;;;;;5083183;28;20032;-40
2020/12/30 00:12:18;;;;;;;55.22;31.88;;;6.40;81.20;;;;;;5088887;28;20032;-41
2020/12/30 00:14:44;;;;;;;60.60;33.28;;;6.40;81.30;;;;;;5095662;28;20056;-41
2020/12/30 00:17:10;;;;;;;52.10;29.75;;;6.40;81.30;;;;;;5088362;28;20052;-40
2020/12/30 00:19:36;;;;;;;58.15;33.00;;;6.40;81.40;;;;;;5081552;28;20450;-40
2020/12/30 00:22:06;;;;;;;50.55;28.05;;;6.40;81.50;;;;;;5097743;28;20032;-41
2020/12/30 00:24:33;;;;;;;53.03;30.00;;;6.40;81.60;;;;;;5096041;28;20125;-41
2020/12/30 00:26:58;;;;;;;50.22;29.13;;;6.50;81.70;;;;;;5097979;28;20016;-40
2020/12/30 00:29:24;;;;;;;66.25;34.03;;;6.50;81.60;;;;;;5097701;28;20020;-41
2020/12/30 00:31:50;;;;;;;60.53;33.45;;;6.50;81.50;;;;;;5094897;28;20020;-40
2020/12/30 00:34:16;;;;;;;56.33;31.08;;;6.50;81.60;;;;;;5097846;28;20036;-40
2020/12/30 00:36:41;;;;;;;59.13;32.72;;;6.50;81.50;;;;;;5099070;28;20039;-41
2020/12/30 00:39:07;;;;;;;40.28;23.70;;;6.50;81.60;;;;;;5099318;28;20409;-40
2020/12/30 00:41:33;;;;;;;53.33;26.73;;;6.50;81.70;;;;;;5098347;28;20084;-42
2020/12/30 00:44:02;;;;;;;45.38;25.35;;;6.50;81.90;;;;;;5099071;28;20020;-40
2020/12/30 00:46:28;;;;;;;50.13;28.30;;;6.50;82.20;;;;;;5098746;28;20030;-41
2020/12/30 00:48:54;;;;;;;41.80;24.30;;;6.60;82.50;;;;;;5099025;28;20028;-40
2020/12/30 00:51:19;;;;;;;43.42;25.58;;;6.60;82.60;;;;;;5097845;28;20020;-41
2020/12/30 00:53:45;;;;;;;41.90;24.33;;;6.60;82.80;;;;;;5098357;28;20060;-40
2020/12/30 00:56:11;;;;;;;36.33;22.75;;;6.70;82.90;;;;;;5097445;28;20497;-40
2020/12/30 00:58:37;;;;;;;39.67;23.33;;;6.70;82.90;;;;;;5098268;28;20047;-40
2020/12/30 01:01:08;;;;;;;45.53;22.60;;;6.70;82.70;;;;;;5097964;28;20032;-40
2020/12/30 01:03:35;;;;;;;43.80;22.88;;;6.80;82.80;;;;;;5098278;28;20028;-40
2020/12/30 01:06:03;;;;;;;40.10;21.52;;;6.80;82.90;;;;;;5089468;28;20342;-40
2020/12/30 01:08:28;;;;;;;32.92;20.27;;;6.80;83.10;;;;;;5087939;28;20330;-40
2020/12/30 01:10:54;;;;;;;42.80;23.92;;;6.80;83.20;;;;;;5089429;28;20089;-41
2020/12/30 01:13:21;;;;;;;25.60;16.77;;;6.90;83.30;;;;;;5078152;28;20067;-40
2020/12/30 01:15:46;;;;;;;49.08;25.00;;;6.90;83.30;;;;;;5077631;28;20043;-41
2020/12/30 01:18:13;;;;;;;93.63;39.45;;;6.90;83.40;;;;;;5077445;28;20045;-40
2020/12/30 01:20:38;;;;;;;92.85;54.25;;;7.00;83.50;;;;;;5082695;28;20070;-40
2020/12/30 01:23:04;;;;;;;117.20;59.92;;;7.00;83.50;;;;;;5096922;28;20028;-41
2020/12/30 01:25:30;;;;;;;72.93;40.00;;;7.00;83.50;;;;;;5096438;28;20055;-41
2020/12/30 01:27:56;;;;;;;49.55;27.70;;;7.00;83.60;;;;;;5094311;28;20059;-40
2020/12/30 01:30:23;;;;;;;65.22;31.30;;;7.10;83.60;;;;;;5096297;28;20024;-41
2020/12/30 01:32:49;;;;;;;161.93;69.28;;;7.10;83.60;;;;;;5093394;28;20028;-40
2020/12/30 01:35:14;;;;;;;194.07;89.15;;;7.20;83.60;;;;;;5094919;28;20120;-40
2020/12/30 01:37:40;;;;;;;153.90;78.50;;;7.20;83.50;;;;;;5093335;28;20016;-41
2020/12/30 01:40:06;;;;;;;78.32;42.17;;;7.20;83.60;;;;;;5095926;28;20047;-40
2020/12/30 01:42:48;;;;;;;61.13;31.08;;;7.20;83.60;;;;;;5096217;28;20027;-41
2020/12/30 01:45:15;;;;;;;57.33;27.65;;;7.20;83.60;;;;;;5095102;28;20024;-40
2020/12/30 01:47:43;;;;;;;63.83;34.78;;;7.20;83.60;;;;;;5096183;28;20373;-41
2020/12/30 01:50:09;;;;;;;66.40;32.85;;;7.20;83.70;;;;;;5096082;28;20034;-40
2020/12/30 01:52:35;;;;;;;53.63;28.80;;;7.20;83.60;;;;;;5095972;28;20020;-41
2020/12/30 01:55:01;;;;;;;48.85;24.42;;;7.30;83.80;;;;;;5095340;28;20024;-40
2020/12/30 01:57:31;;;;;;;55.38;27.80;;;7.30;83.80;;;;;;5094630;28;20039;-41
2020/12/30 01:59:58;;;;;;;58.03;26.67;;;7.30;83.80;;;;;;5095275;28;20036;-40
2020/12/30 02:02:28;;;;;;;65.13;22.52;;;7.30;83.70;;;;;;5093077;28;20119;-41
2020/12/30 02:04:57;;;;;;;46.35;24.35;;;7.30;83.30;;;;;;5096561;28;20024;-40
2020/12/30 02:07:24;;;;;;;95.25;26.73;;;7.30;83.10;;;;;;5092474;28;20147;-40
2020/12/30 02:09:51;;;;;;;95.90;26.27;;;7.30;83.00;;;;;;5096317;28;20064;-40
2020/12/30 02:12:17;;;;;;;124.35;27.58;;;7.30;82.90;;;;;;5096954;28;20024;-40
2020/12/30 02:14:43;;;;;;;160.85;33.67;;;7.30;82.70;;;;;;5089414;28;20127;-42
2020/12/30 02:17:16;;;;;;;76.43;23.13;;;7.20;82.50;;;;;;5095512;28;20115;-41
2020/12/30 02:19:42;;;;;;;119.75;28.15;;;7.20;82.40;;;;;;5095517;28;20365;-40
2020/12/30 02:22:12;;;;;;;80.38;24.30;;;7.20;82.20;;;;;;5096600;28;20023;-40
2020/12/30 02:24:37;;;;;;;76.70;25.92;;;7.10;82.10;;;;;;5085881;28;20043;-40
2020/12/30 02:27:05;;;;;;;50.33;23.23;;;7.10;82.00;;;;;;5094503;28;20024;-41
2020/12/30 02:29:34;;;;;;;47.85;25.30;;;7.00;81.90;;;;;;5096728;28;20028;-40
2020/12/30 02:32:00;;;;;;;45.78;23.35;;;7.00;82.00;;;;;;5092462;28;20371;-41
2020/12/30 02:34:27;;;;;;;60.42;25.48;;;7.00;81.90;;;;;;5086123;28;20036;-40
2020/12/30 02:36:53;;;;;;;60.88;26.75;;;6.90;81.90;;;;;;5078305;28;20442;-41
2020/12/30 02:39:20;;;;;;;227.45;33.10;;;6.90;81.90;;;;;;5077874;28;20031;-40
2020/12/30 02:41:46;;;;;;;68.18;24.95;;;6.90;81.70;;;;;;5086425;28;20029;-40
2020/12/30 02:44:12;;;;;;;189.95;30.33;;;6.80;81.50;;;;;;5076012;28;20024;-40
2020/12/30 02:46:38;;;;;;;61.33;22.80;;;6.70;81.30;;;;;;5085266;28;20035;-42
2020/12/30 02:49:04;;;;;;;52.78;21.42;;;6.70;81.30;;;;;;5077940;28;20449;-40
2020/12/30 02:51:30;;;;;;;42.20;22.58;;;6.70;81.20;;;;;;5075606;28;20078;-41
2020/12/30 02:53:55;;;;;;;99.90;27.48;;;6.60;81.20;;;;;;5075769;28;20032;-40
2020/12/30 02:56:21;;;;;;;106.47;26.95;;;6.60;81.30;;;;;;5075685;28;20031;-41
2020/12/30 02:58:48;;;;;;;66.47;25.02;;;6.50;81.30;;;;;;5076044;28;20039;-40
2020/12/30 03:01:14;;;;;;;83.05;30.48;;;6.50;81.50;;;;;;5085679;28;20024;-40
2020/12/30 03:03:41;;;;;;;76.20;29.77;;;6.40;81.60;;;;;;5082259;28;20030;-40
2020/12/30 03:06:07;;;;;;;87.50;31.50;;;6.40;81.60;;;;;;5090141;28;20386;-40
2020/12/30 03:08:33;;;;;;;83.10;31.08;;;6.40;81.60;;;;;;5092681;28;20110;-40
2020/12/30 03:11:00;;;;;;;94.03;30.20;;;6.40;81.70;;;;;;5094244;28;20020;-41
2020/12/30 03:13:25;;;;;;;86.93;27.67;;;6.30;81.90;;;;;;5095044;28;20073;-40
2020/12/30 03:15:52;;;;;;;124.38;32.38;;;6.30;82.00;;;;;;5092092;28;20024;-41
2020/12/30 03:18:17;;;;;;;92.05;25.45;;;6.30;82.20;;;;;;5092177;28;20052;-40
2020/12/30 03:20:43;;;;;;;49.42;24.00;;;6.30;82.40;;;;;;5094824;28;20434;-40
2020/12/30 03:23:09;;;;;;;56.35;26.17;;;6.30;82.60;;;;;;5094796;28;20032;-40
2020/12/30 03:25:35;;;;;;;97.22;30.58;;;6.30;82.90;;;;;;5093953;28;20467;-40
2020/12/30 03:28:02;;;;;;;74.40;23.08;;;6.30;83.10;;;;;;5093797;28;20047;-40
2020/12/30 03:30:28;;;;;;;89.70;32.50;;;6.30;83.30;;;;;;5093941;28;20032;-40
2020/12/30 03:32:55;;;;;;;64.68;26.95;;;6.40;83.60;;;;;;5092761;28;20336;-40
2020/12/30 03:35:24;;;;;;;70.85;25.13;;;6.40;83.80;;;;;;5092423;28;20294;-40
2020/12/30 03:37:54;;;;;;;48.67;21.00;;;6.40;84.00;;;;;;5092687;28;20028;-40
2020/12/30 03:40:20;;;;;;;54.75;24.60;;;6.50;84.20;;;;;;5092895;28;20516;-40
2020/12/30 03:42:45;;;;;;;65.80;24.58;;;6.50;84.30;;;;;;5093527;28;20151;-40
2020/12/30 03:45:11;;;;;;;79.32;25.67;;;6.50;84.30;;;;;;5092108;28;20036;-40
2020/12/30 03:47:37;;;;;;;77.53;24.48;;;6.60;84.40;;;;;;5089708;28;20097;-41
2020/12/30 03:50:04;;;;;;;70.25;24.13;;;6.60;84.40;;;;;;5094693;28;20042;-41
2020/12/30 03:52:30;;;;;;;50.85;20.58;;;6.70;84.40;;;;;;5095606;28;20016;-40
2020/12/30 03:54:55;;;;;;;36.85;18.25;;;6.70;84.50;;;;;;5097992;28;20054;-40
2020/12/30 03:57:21;;;;;;;39.80;19.27;;;6.70;84.40;;;;;;5098029;28;20031;-40
2020/12/30 03:59:47;;;;;;;64.18;22.10;;;6.80;84.30;;;;;;5098714;28;20047;-40
2020/12/30 04:02:12;;;;;;;42.35;20.05;;;6.80;84.30;;;;;;5097793;28;20104;-41
2020/12/30 04:04:38;;;;;;;52.78;22.15;;;6.80;84.30;;;;;;5098742;28;20045;-40
2020/12/30 04:07:04;;;;;;;88.32;32.33;;;6.80;84.40;;;;;;5098225;28;20020;-41
2020/12/30 04:09:30;;;;;;;81.72;35.28;;;6.90;84.50;;;;;;5098241;28;20465;-40
2020/12/30 04:11:55;;;;;;;79.72;24.05;;;6.90;84.50;;;;;;5098322;28;20662;-41
2020/12/30 04:14:21;;;;;;;66.32;21.98;;;6.90;84.40;;;;;;5098273;28;20053;-40
2020/12/30 04:16:47;;;;;;;66.03;30.88;;;6.90;84.30;;;;;;5090870;28;20353;-41
2020/12/30 04:19:12;;;;;;;93.32;35.28;;;6.90;84.20;;;;;;5097028;28;20052;-40
2020/12/30 04:21:39;;;;;;;161.93;31.02;;;6.90;84.00;;;;;;5092744;28;20031;-41
2020/12/30 04:24:05;;;;;;;94.80;31.10;;;6.90;83.60;;;;;;5085116;28;20116;-40
2020/12/30 04:26:30;;;;;;;77.05;26.02;;;6.90;83.50;;;;;;5087415;28;20111;-41
2020/12/30 04:28:56;;;;;;;111.72;28.63;;;6.90;83.30;;;;;;5079055;28;20067;-40
2020/12/30 04:31:22;;;;;;;135.18;36.30;;;6.90;82.90;;;;;;5077830;28;20047;-41
2020/12/30 04:33:47;;;;;;;124.78;30.45;;;6.90;82.60;;;;;;5079294;28;20103;-40
2020/12/30 04:36:14;;;;;;;78.88;22.15;;;6.90;82.50;;;;;;5080402;28;20359;-41
2020/12/30 04:38:40;;;;;;;67.32;21.23;;;6.80;82.30;;;;;;5083911;28;20439;-40
2020/12/30 04:41:11;;;;;;;74.15;22.45;;;6.80;82.30;;;;;;5076580;28;20040;-40
2020/12/30 04:43:40;;;;;;;75.65;23.35;;;6.70;82.30;;;;;;5077018;28;20028;-40
2020/12/30 04:46:07;;;;;;;84.18;25.50;;;6.70;82.50;;;;;;5083653;28;20028;-40
2020/12/30 04:48:34;;;;;;;118.25;28.70;;;6.70;82.60;;;;;;5091533;28;20127;-40
2020/12/30 04:51:02;;;;;;;123.28;25.88;;;6.60;82.50;;;;;;5097028;28;20035;-41
2020/12/30 04:53:29;;;;;;;151.93;29.50;;;6.60;82.70;;;;;;5096441;28;20024;-40
2020/12/30 04:55:59;;;;;;;94.93;23.98;;;6.60;82.50;;;;;;5096440;28;20486;-41
2020/12/30 04:58:29;;;;;;;82.20;24.10;;;6.60;82.50;;;;;;5096968;28;20028;-40
2020/12/30 05:00:57;;;;;;;107.75;24.85;;;6.50;82.30;;;;;;5096189;28;20035;-40
2020/12/30 05:03:46;;;;;;;227.75;33.58;;;6.50;82.40;;;;;;5095760;28;20028;-41
2020/12/30 05:06:14;;;;;;;62.53;23.17;;;6.50;82.30;;;;;;5097000;28;20425;-40
2020/12/30 05:08:40;;;;;;;144.90;30.83;;;6.40;83.00;;;;;;5096961;28;20024;-40
2020/12/30 05:11:06;;;;;;;44.13;21.95;;;6.40;82.60;;;;;;5095474;28;20039;-41
2020/12/30 05:13:32;;;;;;;62.47;22.80;;;6.40;82.90;;;;;;5096298;28;20039;-40
2020/12/30 05:15:58;;;;;;;38.70;18.63;;;6.40;83.10;;;;;;5095373;28;20338;-41
2020/12/30 05:18:24;;;;;;;81.80;25.55;;;6.40;83.20;;;;;;5088025;28;20381;-40
2020/12/30 05:20:50;;;;;;;74.13;26.05;;;6.40;83.10;;;;;;5076903;28;20040;-40
2020/12/30 05:23:15;;;;;;;79.75;26.80;;;6.40;83.20;;;;;;5076655;28;20319;-40
2020/12/30 05:25:42;;;;;;;79.40;27.15;;;6.40;83.00;;;;;;5076545;28;20035;-41
2020/12/30 05:28:10;;;;;;;193.50;32.20;;;6.40;82.90;;;;;;5080728;28;20086;-40
2020/12/30 05:30:37;;;;;;;137.48;28.88;;;6.40;82.70;;;;;;5096116;28;20024;-40
2020/12/30 05:33:04;;;;;;;109.82;23.30;;;6.40;82.60;;;;;;5097205;28;20393;-40
2020/12/30 05:35:31;;;;;;;98.28;24.63;;;6.30;82.50;;;;;;5097060;28;20054;-40
2020/12/30 05:37:57;;;;;;;112.10;25.13;;;6.30;82.40;;;;;;5094424;28;20043;-40
2020/12/30 05:40:24;;;;;;;125.38;29.02;;;6.30;82.50;;;;;;5097664;28;20067;-40
2020/12/30 05:42:52;;;;;;;87.05;26.42;;;6.30;82.60;;;;;;5096016;28;20094;-40
2020/12/30 05:45:22;;;;;;;102.00;23.40;;;6.20;82.50;;;;;;5094996;28;20032;-40
2020/12/30 05:47:51;;;;;;;101.43;23.10;;;6.20;82.50;;;;;;5094461;28;20397;-40
2020/12/30 05:50:25;;;;;;;90.03;26.92;;;6.20;82.60;;;;;;5095311;28;20382;-40
2020/12/30 05:52:52;;;;;;;57.00;24.40;;;6.20;82.80;;;;;;5095416;28;20028;-40
2020/12/30 05:55:26;;;;;;;81.05;23.95;;;6.20;83.00;;;;;;5095757;28;20201;-41
2020/12/30 05:57:52;;;;;;;142.73;27.13;;;6.20;83.00;;;;;;5095989;28;20050;-40
2020/12/30 06:00:17;;;;;;;97.72;26.88;;;6.20;82.80;;;;;;5096809;28;20330;-40
2020/12/30 06:02:45;;;;;;;146.82;28.20;;;6.20;82.70;;;;;;5095767;28;20111;-40
2020/12/30 06:05:19;;;;;;;110.28;26.20;;;6.20;82.70;;;;;;5097345;28;20046;-40
2020/12/30 06:08:02;;;;;;;87.32;25.05;;;6.20;82.60;;;;;;5096657;28;20122;-40
2020/12/30 06:10:28;;;;;;;70.88;28.02;;;6.20;82.60;;;;;;5096613;28;20100;-40
2020/12/30 06:12:59;;;;;;;63.30;23.75;;;6.10;82.80;;;;;;5094361;28;20432;-40
2020/12/30 06:15:27;;;;;;;78.15;24.40;;;6.10;82.80;;;;;;5094699;28;20423;-40
2020/12/30 06:17:59;;;;;;;63.28;22.38;;;6.10;83.00;;;;;;5095699;28;20074;-40
2020/12/30 06:20:32;;;;;;;50.92;19.77;;;6.20;83.10;;;;;;5096276;28;20043;-40
2020/12/30 06:22:59;;;;;;;74.47;24.70;;;6.20;83.10;;;;;;5096273;28;20024;-40
2020/12/30 06:25:39;;;;;;;52.55;24.42;;;6.20;83.10;;;;;;5096170;28;20028;-40
2020/12/30 06:28:13;;;;;;;45.53;22.23;;;6.20;83.10;;;;;;5095927;28;20404;-40
2020/12/30 06:30:41;;;;;;;74.00;35.47;;;6.20;83.20;;;;;;5095357;28;20035;-40
2020/12/30 06:33:08;;;;;;;90.00;35.28;;;6.20;83.30;;;;;;5095567;28;20043;-40
2020/12/30 06:35:36;;;;;;;126.57;53.25;;;6.20;83.50;;;;;;5095004;28;20035;-40
2020/12/30 06:38:22;;;;;;;126.22;49.58;;;6.30;83.60;;;;;;5094953;28;20044;-41
2020/12/30 06:40:52;;;;;;;169.38;71.60;;;6.30;83.50;;;;;;5090050;28;20036;-40
2020/12/30 06:43:41;;;;;;;132.30;55.45;;;6.30;83.60;;;;;;5085668;28;20484;-40
2020/12/30 06:46:11;;;;;;;64.03;30.85;;;6.40;83.60;;;;;;5092663;28;20024;-40
2020/12/30 06:48:57;;;;;;;90.72;39.30;;;6.40;83.60;;;;;;5094807;28;20036;-40
2020/12/30 06:51:24;;;;;;;57.63;28.05;;;6.40;83.60;;;;;;5094369;28;20024;-40
2020/12/30 06:53:56;;;;;;;67.97;31.73;;;6.40;83.60;;;;;;5094960;28;20437;-40
2020/12/30 06:56:41;;;;;;;55.95;28.42;;;6.50;83.70;;;;;;5091761;28;20620;-41
2020/12/30 06:59:08;;;;;;;55.63;29.48;;;6.60;83.70;;;;;;5079464;28;20032;-40
2020/12/30 07:01:54;;;;;;;76.40;34.20;;;6.60;83.80;;;;;;5080128;28;20130;-41
2020/12/30 07:04:21;;;;;;;73.82;37.10;;;6.60;83.80;;;;;;5072797;28;20067;-41
2020/12/30 07:06:47;;;;;;;84.55;43.20;;;6.60;83.90;;;;;;5079866;28;20153;-41
2020/12/30 07:09:16;;;;;;;77.68;36.45;;;6.70;84.00;;;;;;5092366;28;20119;-39
2020/12/30 07:11:51;;;;;;;89.88;41.03;;;6.70;83.90;;;;;;5092439;28;20330;-39
2020/12/30 07:14:21;;;;;;;80.28;33.47;;;6.80;83.50;;;;;;5093147;28;20063;-38
2020/12/30 07:16:51;;;;;;;57.08;31.63;;;6.70;83.00;;;;;;5095081;28;20041;-39
2020/12/30 07:19:19;;;;;;;67.70;33.43;;;6.70;82.80;;;;;;5094838;28;20052;-39
2020/12/30 07:21:56;;;;;;;63.53;31.02;;;6.70;82.80;;;;;;5094481;28;20288;-39
2020/12/30 07:24:26;;;;;;;69.32;39.65;;;6.70;82.80;;;;;;5092294;28;20036;-42
2020/12/30 07:26:55;;;;;;;53.45;29.88;;;6.80;82.70;;;;;;5095837;28;20051;-40
2020/12/30 07:29:21;;;;;;;47.40;26.52;;;6.80;82.80;;;;;;5094615;28;20036;-41
2020/12/30 07:31:50;;;;;;;58.22;38.38;;;6.80;82.80;;;;;;5094452;28;20066;-41
2020/12/30 07:34:18;;;;;;;55.30;32.88;;;6.80;82.80;;;;;;5094976;28;20066;-41
2020/12/30 07:36:45;;;;;;;53.75;31.60;;;6.90;82.90;;;;;;5108471;28;20337;-42
2020/12/30 07:39:11;;;;;;;59.53;36.75;;;6.90;82.90;;;;;;5102336;28;20173;-39
2020/12/30 07:41:42;;;;;;;72.72;45.70;;;6.90;82.90;;;;;;5107669;28;20035;-39
2020/12/30 07:44:08;;;;;;;57.85;34.28;;;6.90;83.00;;;;;;5095007;28;20097;-40
2020/12/30 07:46:34;;;;;;;73.72;35.50;;;7.00;83.10;;;;;;5096333;28;20031;-40
2020/12/30 07:49:14;;;;;;;79.30;38.80;;;7.00;83.20;;;;;;5112650;28;20039;-39
2020/12/30 07:51:54;;;;;;;67.00;34.22;;;7.10;83.40;;;;;;5096031;28;20154;-39
2020/12/30 07:54:21;;;;;;;64.97;30.05;;;7.10;83.40;;;;;;5097720;28;20040;-40
2020/12/30 07:56:48;;;;;;;56.38;31.35;;;7.20;83.40;;;;;;5093722;28;20674;-39
2020/12/30 07:59:24;;;;;;;53.22;31.23;;;7.20;83.30;;;;;;5093440;28;20024;-39
2020/12/30 08:01:54;;;;;;;43.35;25.02;;;7.20;83.00;;;;;;5094001;28;20055;-39
2020/12/30 08:04:20;;;;;;;54.67;32.58;;;7.30;82.90;;;;;;5096454;28;20099;-41
2020/12/30 08:06:46;;;;;;;172.43;87.80;;;7.30;82.80;;;;;;5093301;28;20512;-41
2020/12/30 08:09:13;;;;;;;181.70;92.32;;;7.30;82.70;;;;;;5094766;28;20089;-41
2020/12/30 08:11:49;;;;;;;231.77;125.18;;;7.40;82.80;;;;;;5094266;28;20447;-41
2020/12/30 08:14:16;;;;;;;271.20;176.57;;;7.40;83.40;;;;;;5094061;28;20025;-41
2020/12/30 08:17:12;;;;;;;258.50;156.10;;;7.50;83.00;;;;;;5094450;28;20046;-41
2020/12/30 08:19:48;;;;;;;152.50;92.38;;;7.50;83.30;;;;;;5081563;28;20079;-41
2020/12/30 08:22:25;;;;;;;148.48;70.57;;;7.60;83.80;;;;;;5095197;28;20024;-40
2020/12/30 08:25:00;;;;;;;133.73;61.33;;;7.60;84.40;;;;;;5092663;28;20122;-40
2020/12/30 08:27:30;;;;;;;149.82;79.85;;;7.70;84.60;;;;;;5090579;28;20028;-40
2020/12/30 08:29:57;;;;;;;109.43;52.67;;;7.80;85.00;;;;;;5075433;28;20036;-40
2020/12/30 08:32:23;;;;;;;118.18;58.10;;;7.90;85.00;;;;;;5075051;28;20052;-40
2020/12/30 08:34:57;;;;;;;148.50;80.70;;;8.00;84.90;;;;;;5074838;28;20079;-40
2020/12/30 08:37:45;;;;;;;119.85;57.63;;;8.00;84.70;;;;;;5074010;28;20027;-40
2020/12/30 08:40:23;;;;;;;91.15;47.65;;;8.10;84.70;;;;;;5075138;28;20091;-41
2020/12/30 08:42:52;;;;;;;77.28;41.65;;;8.20;84.40;;;;;;5076625;28;20027;-40
2020/12/30 08:45:38;;;;;;;61.30;33.75;;;8.20;84.10;;;;;;5076212;28;20040;-41
2020/12/30 08:48:11;;;;;;;82.85;47.95;;;8.30;83.80;;;;;;5075554;28;20039;-40
2020/12/30 08:50:37;;;;;;;73.78;42.50;;;8.30;83.80;;;;;;5074550;28;20039;-40
2020/12/30 08:53:03;;;;;;;65.50;35.53;;;8.40;84.20;;;;;;5074799;28;20123;-41
2020/12/30 08:55:28;;;;;;;65.13;40.22;;;8.50;84.30;;;;;;5075463;28;20063;-41
2020/12/30 08:57:54;;;;;;;52.40;29.58;;;8.50;84.40;;;;;;5075841;28;20136;-40
2020/12/30 09:00:22;;;;;;;42.65;23.83;;;8.50;83.90;;;;;;5095026;28;20089;-42
2020/12/30 09:02:50;;;;;;;47.28;25.90;;;8.50;83.10;;;;;;5093868;28;20311;-40
2020/12/30 09:05:32;;;;;;;43.42;22.20;;;8.60;82.80;;;;;;5092756;28;20035;-41
2020/12/30 09:08:15;;;;;;;44.40;25.33;;;8.60;83.00;;;;;;5087963;28;20103;-40
2020/12/30 09:10:43;;;;;;;54.40;27.10;;;8.60;82.40;;;;;;5092621;28;20046;-41
2020/12/30 09:13:18;;;;;;;64.93;31.88;;;8.60;83.10;;;;;;5097080;28;20059;-41
2020/12/30 09:15:45;;;;;;;77.45;34.17;;;8.60;83.70;;;;;;5095849;28;20031;-40
2020/12/30 09:18:14;;;;;;;87.50;38.38;;;8.70;84.70;;;;;;5098083;28;20697;-41
2020/12/30 09:20:41;;;;;;;88.15;40.05;;;8.70;85.10;;;;;;5096844;28;20036;-41
2020/12/30 09:23:07;;;;;;;72.82;38.45;;;8.80;85.60;;;;;;5097795;28;20172;-40
2020/12/30 09:25:38;;;;;;;69.70;38.25;;;8.90;86.00;;;;;;5097558;28;20024;-41
2020/12/30 09:28:19;;;;;;;70.93;38.17;;;9.10;86.20;;;;;;5097610;28;20039;-41
2020/12/30 09:30:47;;;;;;;68.75;37.80;;;9.20;86.40;;;;;;5097187;28;20020;-41
2020/12/30 09:33:22;;;;;;;62.50;35.70;;;9.30;86.30;;;;;;5096094;28;20059;-42
2020/12/30 09:35:49;;;;;;;52.55;30.27;;;9.40;86.40;;;;;;5095591;28;20418;-41
2020/12/30 09:38:24;;;;;;;68.57;36.05;;;9.40;86.20;;;;;;5096128;28;20039;-41
2020/12/30 09:40:52;;;;;;;63.25;36.25;;;9.50;86.30;;;;;;5095104;28;20038;-42
2020/12/30 09:43:20;;;;;;;66.88;37.97;;;9.60;86.20;;;;;;5096020;28;20040;-41
2020/12/30 09:45:48;;;;;;;68.45;36.10;;;9.70;86.10;;;;;;5095520;28;20530;-41
2020/12/30 09:48:21;;;;;;;59.97;34.35;;;9.70;85.90;;;;;;5095517;28;20028;-41
2020/12/30 09:50:49;;;;;;;52.05;31.63;;;9.80;86.10;;;;;;5097011;28;20044;-41
2020/12/30 09:53:16;;;;;;;53.53;30.48;;;9.90;85.90;;;;;;5097492;28;20119;-41
2020/12/30 09:55:46;;;;;;;48.33;28.85;;;9.90;85.80;;;;;;5078006;28;20020;-43
2020/12/30 09:58:12;;;;;;;46.83;26.42;;;10.00;85.70;;;;;;5095922;28;20032;-41
2020/12/30 10:00:39;;;;;;;45.03;26.73;;;10.00;85.70;;;;;;5094977;28;20039;-42
2020/12/30 10:03:05;;;;;;;56.30;30.48;;;10.00;85.50;;;;;;5094719;28;20031;-41
2020/12/30 10:05:32;;;;;;;45.63;24.67;;;10.10;85.70;;;;;;5093346;28;20066;-42
2020/12/30 10:07:58;;;;;;;51.08;29.10;;;10.10;85.70;;;;;;5096517;28;20124;-41
2020/12/30 10:10:25;;;;;;;39.35;23.17;;;10.20;85.70;;;;;;5095095;28;20414;-42
2020/12/30 10:12:51;;;;;;;63.97;34.22;;;10.20;85.60;;;;;;5094727;28;20020;-42
2020/12/30 10:15:19;;;;;;;48.00;28.35;;;10.30;85.30;;;;;;5095066;28;20047;-42
2020/12/30 10:17:46;;;;;;;47.28;26.23;;;10.30;84.50;;;;;;5095407;28;20020;-42
2020/12/30 10:20:14;;;;;;;30.40;18.02;;;10.30;83.30;;;;;;5093113;28;20101;-42
2020/12/30 10:22:40;;;;;;;32.00;19.98;;;10.30;82.40;;;;;;5095221;28;20028;-41
2020/12/30 10:25:09;;;;;;;27.98;16.52;;;10.20;81.70;;;;;;5094605;28;20039;-42
2020/12/30 10:27:36;;;;;;;147.27;86.18;;;10.20;80.70;;;;;;5091174;28;20093;-41
2020/12/30 10:30:07;;;;;;;69.22;35.58;;;10.20;80.60;;;;;;5095920;28;20040;-42
2020/12/30 10:32:34;;;;;;;30.27;16.85;;;10.10;80.20;;;;;;5095543;28;20024;-43
2020/12/30 10:35:00;;;;;;;25.48;17.00;;;10.00;80.10;;;;;;5096194;28;20040;-43
2020/12/30 10:37:27;;;;;;;27.20;15.15;;;10.00;79.80;;;;;;5078351;28;20032;-45
2020/12/30 10:39:54;;;;;;;21.88;14.57;;;9.90;79.00;;;;;;5078865;28;20107;-43
2020/12/30 10:42:20;;;;;;;37.10;19.45;;;9.90;79.00;;;;;;5095229;28;20098;-42
2020/12/30 10:44:46;;;;;;;24.10;14.32;;;9.80;79.30;;;;;;5096587;28;20144;-41
2020/12/30 10:47:12;;;;;;;18.02;12.15;;;9.80;79.30;;;;;;5095055;28;20071;-41
2020/12/30 10:49:38;;;;;;;23.48;14.32;;;9.70;78.90;;;;;;5096065;28;20067;-41
2020/12/30 10:52:04;;;;;;;27.77;15.60;;;9.70;78.50;;;;;;5094003;28;20128;-41
2020/12/30 10:54:30;;;;;;;29.52;18.20;;;9.70;78.30;;;;;;5094762;28;20031;-41
2020/12/30 10:56:56;;;;;;;19.70;11.95;;;9.60;78.20;;;;;;5094545;28;20425;-41
2020/12/30 10:59:22;;;;;;;17.60;10.95;;;9.50;78.20;;;;;;5094653;28;20040;-42
2020/12/30 11:01:52;;;;;;;15.80;10.30;;;9.50;78.00;;;;;;5094591;28;20044;-41
2020/12/30 11:04:18;;;;;;;10.55;7.80;;;9.40;78.00;;;;;;5094634;28;20336;-41
2020/12/30 11:06:44;;;;;;;12.77;9.15;;;9.40;77.60;;;;;;5094314;28;20099;-41
2020/12/30 11:09:11;;;;;;;18.63;11.15;;;9.30;77.20;;;;;;5094871;28;20123;-41
2020/12/30 11:11:37;;;;;;;20.55;11.45;;;9.30;77.40;;;;;;5093664;28;20027;-41
2020/12/30 11:14:03;;;;;;;22.58;12.93;;;9.20;77.80;;;;;;5095143;28;20050;-41
2020/12/30 11:16:28;;;;;;;23.90;15.70;;;9.20;77.80;;;;;;5094519;28;20443;-41
2020/12/30 11:18:54;;;;;;;26.75;14.93;;;9.20;77.70;;;;;;5095257;28;20063;-41
2020/12/30 11:21:21;;;;;;;26.17;13.85;;;9.10;78.30;;;;;;5095411;28;20429;-41
2020/12/30 11:23:47;;;;;;;19.02;11.20;;;9.10;77.70;;;;;;5095801;28;20030;-40
2020/12/30 11:26:12;;;;;;;18.85;10.75;;;9.10;77.50;;;;;;5094429;28;20349;-42
2020/12/30 11:28:39;;;;;;;30.08;15.35;;;9.00;77.20;;;;;;5095642;28;20111;-41
2020/12/30 11:31:06;;;;;;;39.67;17.58;;;9.00;77.50;;;;;;5095063;28;20062;-41
2020/12/30 11:33:32;;;;;;;22.10;13.00;;;9.00;77.40;;;;;;5095265;28;20028;-41
2020/12/30 11:35:58;;;;;;;14.45;8.98;;;8.90;76.90;;;;;;5095277;28;20033;-41
2020/12/30 11:38:24;;;;;;;43.10;22.60;;;8.80;76.30;;;;;;5095435;28;20079;-41
2020/12/30 11:40:49;;;;;;;80.68;34.67;;;8.70;76.70;;;;;;5095049;28;20044;-42
2020/12/30 11:43:15;;;;;;;110.68;45.97;;;8.70;77.90;;;;;;5091297;28;20115;-41
2020/12/30 11:45:41;;;;;;;157.77;57.88;;;8.70;79.20;;;;;;5076594;28;20486;-42
2020/12/30 11:48:07;;;;;;;178.38;59.60;;;8.70;81.80;;;;;;5073178;28;20088;-41
2020/12/30 11:50:34;;;;;;;181.75;60.65;;;8.80;83.70;;;;;;5094233;28;20460;-42
2020/12/30 11:53:00;;;;;;;188.90;65.65;;;9.00;84.60;;;;;;5092432;28;20039;-41
2020/12/30 11:55:27;;;;;;;193.45;68.68;;;9.10;84.80;;;;;;5093349;28;20032;-43
2020/12/30 11:57:52;;;;;;;206.30;67.57;;;9.30;85.20;;;;;;5093902;28;20031;-40
2020/12/30 12:00:19;;;;;;;221.57;70.63;;;9.40;85.80;;;;;;5094493;28;20036;-41
2020/12/30 12:02:46;;;;;;;193.00;63.80;;;9.60;85.90;;;;;;5092973;28;20046;-42
2020/12/30 12:05:13;;;;;;;167.50;58.72;;;9.70;85.70;;;;;;5094322;28;20032;-42
2020/12/30 12:07:43;;;;;;;141.85;52.85;;;9.90;85.60;;;;;;5087477;28;20162;-42
2020/12/30 12:10:10;;;;;;;122.00;48.85;;;10.00;85.60;;;;;;5079512;28;20032;-42
2020/12/30 12:12:37;;;;;;;31.08;15.68;;;10.10;85.10;;;;;;5082815;28;20425;-42
2020/12/30 12:15:05;;;;;;;18.80;11.13;;;10.20;82.70;;;;;;5097394;28;20028;-42
2020/12/30 12:17:32;;;;;;;16.55;11.05;;;10.20;80.00;;;;;;5098793;28;20081;-42
2020/12/30 12:19:58;;;;;;;18.58;11.90;;;10.10;78.70;;;;;;5097761;28;20059;-42
2020/12/30 12:22:25;;;;;;;45.97;23.73;;;10.00;78.20;;;;;;5097434;28;20089;-42
2020/12/30 12:24:52;;;;;;;86.15;34.70;;;9.90;78.90;;;;;;5098232;28;20032;-41
2020/12/30 12:27:19;;;;;;;144.52;51.22;;;9.80;80.80;;;;;;5098145;28;20020;-42
2020/12/30 12:29:50;;;;;;;159.88;52.53;;;9.80;82.80;;;;;;5098233;28;20030;-42
2020/12/30 12:32:23;;;;;;;174.13;60.75;;;9.80;83.90;;;;;;5098853;28;20395;-42
2020/12/30 12:34:51;;;;;;;169.20;54.25;;;9.90;84.50;;;;;;5099627;28;20039;-41
2020/12/30 12:37:19;;;;;;;178.57;56.42;;;10.00;85.30;;;;;;5098100;28;20028;-41